Fort Assiniboine, Alberta

8:09 AM MDT on September 03, 2015 (GMT -0600)
Whitecourt | | Change Station
CLOSE
Current Station
Airport
Location: Whitecourt,
Elevation: 2566 ft
Nearby Weather Stations

Elev 2566 ft 54.14 °N, 115.79 °W | Updated 9 minutes ago

Mostly Cloudy
Mostly Cloudy
37 °F
Feels Like 29 °F
N
13
Wind Variable Wind from NW
Gusts 20 mph

Today
High -- | Low -- °F
--% Chance of Precip.
Yesterday
High -- | Low -- °F
Precip. -- in
6:49 AM 8:25 PM
Waning Gibbous, 70% visible
Pressure 30.04 in
Visibility 15.0 miles
Clouds Mostly Cloudy 1000 ft
Windchill 29 °F
Dew Point 34 °F
Humidity 87%
Rainfall 0.00 in
Snow Depth Not available.
UV 0 out of 12
Pollen Not available.
Air Quality Not available.
Flu Activity Not available.
METAR CYZU 031400Z 31011G17KT 15SM BKN010 03/01 A2997 RMK SC7 SLP170
Pressure 30.04 in
Visibility 15.0 miles
Clouds Mostly Cloudy 1000 ft
Windchill 29 °F
Dew Point 34 °F
Humidity 87%
Rainfall 0.00 in
Snow Depth Not available.
UV 0 out of 12
Pollen Not available.
Air Quality Not available.
Flu Activity Not available.
METAR CYZU 031400Z 31011G17KT 15SM BKN010 03/01 A2997 RMK SC7 SLP170

10-Day Weather Forecast

×

Almanac

Astronomy

Sep. 03, 2015 Rise Set
Actual Time
Civil Twilight
Nautical Twilight
Astronomical Twilight
Moon
Length of Visible Light
Length of Day
Tomorrow will be .
, % of the Moon is Illuminated

Today's Extremes

Country Highs Country Lows

Community

WunderPhotos

Upload Photos

1,851,955 photos uploaded!

WunderBlogs® & News

Nearby

Air Quality

  Air Quality AQ Index Pollutant
Not available.

Snow Depth

Station Depth Elevation

Earthquake Activity

City Distance Mag. Time & Date
Minimum magnitude displayed is 2.5.

Coastal Water Temperatures

Place Temperature

Stations

Nearby Weather Stations

Station Location Temp. Windchill Dew Point Humidity Wind Precip. Elev Updated Type